Time;durP1;ratioP1;P1;durP2;ratioP2;P2;SDS_P1;SDS_P2;PMS_P1;PMS_P2;Temp;Humidity;BMP_temperature;BMP_pressure;BME280_temperature;BME280_humidity;BME280_pressure;Samples;Min_cycle;Max_cycle;Signal;HPM_P1;HPM_P2
2021/09/10 00:00:09;;;;;;;13.40;8.80;;;;;;;14.97;58.63;100388.26;115792;1198;22213;-78
2021/09/10 00:03:00;;;;;;;13.00;8.10;;;;;;;14.94;58.76;100394.33;116268;1197;21901;-77
2021/09/10 00:05:30;;;;;;;11.70;8.40;;;;;;;14.91;58.77;100393.48;116203;1196;23611;-77
2021/09/10 00:08:00;;;;;;;11.10;7.70;;;;;;;14.88;58.73;100397.90;116268;1193;22919;-76
2021/09/10 00:10:31;;;;;;;9.10;8.20;;;;;;;14.87;58.85;100396.73;116325;1192;21897;-77
2021/09/10 00:13:00;;;;;;;8.40;7.40;;;;;;;14.86;58.96;100397.64;116309;1191;21938;-77
2021/09/10 00:15:29;;;;;;;11.40;8.30;;;;;;;14.83;59.05;100397.79;116311;1193;21902;-77
2021/09/10 00:17:59;;;;;;;9.40;7.10;;;;;;;14.81;59.15;100400.42;116195;1194;23472;-78
2021/09/10 00:20:28;;;;;;;10.40;7.90;;;;;;;14.79;59.25;100397.59;116778;1190;21905;-78
2021/09/10 00:22:57;;;;;;;12.70;8.20;;;;;;;14.78;59.26;100398.67;116453;1192;21892;-77
2021/09/10 00:25:26;;;;;;;11.40;8.30;;;;;;;14.76;59.36;100398.09;116353;1189;21914;-77
2021/09/10 00:27:55;;;;;;;10.60;7.90;;;;;;;14.73;59.43;100397.21;116385;1192;21886;-77
2021/09/10 00:30:25;;;;;;;9.50;7.20;;;;;;;14.70;59.53;100396.83;116081;1194;21970;-77
2021/09/10 00:32:56;;;;;;;9.30;7.20;;;;;;;14.67;59.47;100396.80;116080;1197;24055;-78
2021/09/10 00:35:26;;;;;;;10.20;7.20;;;;;;;14.63;59.64;100394.40;116026;1196;21912;-77
2021/09/10 00:37:55;;;;;;;13.70;7.90;;;;;;;14.59;59.63;100392.77;116066;1196;22322;-77
2021/09/10 00:40:24;;;;;;;11.80;7.50;;;;;;;14.56;59.75;100390.30;116061;1193;21913;-77
2021/09/10 00:42:53;;;;;;;10.10;8.30;;;;;;;14.53;59.80;100390.80;116168;1192;22618;-77
2021/09/10 00:45:22;;;;;;;9.90;7.30;;;;;;;14.52;59.95;100391.16;116105;1191;21855;-77
2021/09/10 00:47:51;;;;;;;9.70;7.70;;;;;;;14.50;60.08;100395.80;116322;1193;22864;-78
2021/09/10 00:50:21;;;;;;;10.70;7.70;;;;;;;14.48;60.11;100395.83;116268;1194;22790;-78
2021/09/10 00:52:51;;;;;;;13.80;7.70;;;;;;;14.46;60.18;100393.42;115746;1197;23920;-78
2021/09/10 00:55:26;;;;;;;8.10;6.90;;;;;;;14.43;60.23;100393.32;115717;1198;21904;-77
2021/09/10 00:57:55;;;;;;;11.70;7.20;;;;;;;14.39;60.28;100390.95;116041;1198;22050;-77
2021/09/10 01:00:24;;;;;;;9.40;7.50;;;;;;;14.38;60.41;100390.94;115889;1197;23555;-77
2021/09/10 01:02:55;;;;;;;10.40;7.80;;;;;;;14.35;60.43;100389.85;115406;1201;24289;-77
2021/09/10 01:05:25;;;;;;;8.30;7.00;;;;;;;14.32;60.55;100388.64;115282;1196;21918;-77
2021/09/10 01:07:57;;;;;;;10.80;7.20;;;;;;;14.30;60.61;100392.10;115406;1201;22928;-77
2021/09/10 01:10:27;;;;;;;9.50;7.60;;;;;;;14.26;60.62;100390.42;115801;1194;21888;-77
2021/09/10 01:12:58;;;;;;;9.40;7.00;;;;;;;14.25;60.68;100396.10;116018;1197;23457;-78
2021/09/10 01:15:28;;;;;;;9.00;7.20;;;;;;;14.24;60.82;100397.61;115805;1199;21919;-77
2021/09/10 01:17:57;;;;;;;12.70;7.10;;;;;;;14.23;60.88;100398.98;115184;1203;22022;-77
2021/09/10 01:20:27;;;;;;;8.10;7.20;;;;;;;14.21;60.95;100399.13;115070;1200;22844;-78
2021/09/10 01:22:56;;;;;;;13.60;6.90;;;;;;;14.19;61.06;100398.46;115216;1202;22942;-77
2021/09/10 01:25:26;;;;;;;10.80;7.00;;;;;;;14.18;61.04;100398.93;115227;1198;21922;-78
2021/09/10 01:27:59;;;;;;;9.40;7.50;;;;;;;14.18;61.13;100395.05;115229;1203;21910;-77
2021/09/10 01:30:33;;;;;;;12.60;8.30;;;;;;;14.18;61.09;100396.65;115103;1200;23112;-77
2021/09/10 01:33:07;;;;;;;11.40;7.10;;;;;;;14.16;61.06;100393.52;115677;1197;22803;-77
2021/09/10 01:35:38;;;;;;;10.00;7.00;;;;;;;14.12;61.11;100394.51;116133;1195;21992;-78
2021/09/10 01:38:09;;;;;;;11.20;7.50;;;;;;;14.08;61.21;100394.59;116310;1192;21957;-78
2021/09/10 01:40:39;;;;;;;17.20;7.60;;;;;;;14.06;61.34;100395.10;116418;1189;22081;-77
2021/09/10 01:43:09;;;;;;;12.60;7.50;;;;;;;14.04;61.41;100398.89;116321;1192;22145;-78
2021/09/10 01:45:38;;;;;;;12.90;6.90;;;;;;;14.01;61.44;100398.12;116344;1195;21909;-78
2021/09/10 01:48:10;;;;;;;11.30;7.20;;;;;;;13.98;61.51;100401.15;116326;1193;21891;-77
2021/09/10 01:50:39;;;;;;;10.50;7.40;;;;;;;13.95;61.60;100401.55;116369;1192;22902;-77
2021/09/10 01:53:08;;;;;;;12.30;7.40;;;;;;;13.93;61.65;100398.82;116298;1192;22611;-78
2021/09/10 01:55:38;;;;;;;11.40;7.40;;;;;;;13.91;61.73;100396.55;115990;1197;22913;-78
2021/09/10 01:58:07;;;;;;;11.50;7.90;;;;;;;13.91;61.92;100393.93;116050;1195;21902;-78
2021/09/10 02:00:36;;;;;;;13.50;7.60;;;;;;;13.89;61.92;100387.55;115799;1197;21912;-78
2021/09/10 02:03:05;;;;;;;10.20;7.50;;;;;;;13.87;61.88;100385.68;116181;1195;22906;-78
2021/09/10 02:05:35;;;;;;;10.00;8.00;;;;;;;13.86;61.98;100390.25;116045;1196;22940;-78
2021/09/10 02:08:04;;;;;;;11.80;7.60;;;;;;;13.85;61.92;100388.15;116157;1192;21899;-78
2021/09/10 02:10:33;;;;;;;10.10;7.10;;;;;;;13.84;61.94;100386.06;116066;1196;21950;-78
2021/09/10 02:13:02;;;;;;;7.70;7.00;;;;;;;13.84;61.92;100384.80;116242;1194;23904;-77
2021/09/10 02:15:31;;;;;;;9.80;7.20;;;;;;;13.84;62.00;100383.28;116429;1189;23450;-77
2021/09/10 02:18:01;;;;;;;8.10;6.90;;;;;;;13.83;62.02;100384.98;116565;1191;21875;-77
2021/09/10 02:20:30;;;;;;;9.50;6.70;;;;;;;13.82;62.08;100384.57;116450;1192;22418;-78
2021/09/10 02:22:59;;;;;;;10.60;7.40;;;;;;;13.83;61.98;100386.62;116570;1189;23488;-77
2021/09/10 02:25:28;;;;;;;8.50;7.60;;;;;;;13.81;61.96;100385.53;116446;1192;21902;-77
2021/09/10 02:27:57;;;;;;;12.60;7.40;;;;;;;13.80;61.99;100387.80;116436;1192;21891;-77
2021/09/10 02:30:26;;;;;;;11.60;8.20;;;;;;;13.80;62.04;100391.71;116616;1191;24151;-78
2021/09/10 02:32:55;;;;;;;9.40;7.20;;;;;;;13.80;62.04;100390.17;116560;1190;21926;-77
2021/09/10 02:35:25;;;;;;;10.30;7.50;;;;;;;13.79;62.09;100388.29;116568;1191;22899;-77
2021/09/10 02:37:54;;;;;;;14.30;6.70;;;;;;;13.80;62.00;100390.99;116610;1189;21894;-77
2021/09/10 02:40:23;;;;;;;13.80;7.50;;;;;;;13.82;62.07;100392.16;116539;1192;21902;-77
2021/09/10 02:42:52;;;;;;;10.50;7.40;;;;;;;13.83;61.97;100397.69;116113;1193;22923;-78
2021/09/10 02:45:21;;;;;;;11.20;7.50;;;;;;;13.83;61.88;100394.37;116183;1195;21902;-77
2021/09/10 02:47:50;;;;;;;9.20;6.90;;;;;;;13.83;61.88;100393.69;116059;1196;21904;-78
2021/09/10 02:50:20;;;;;;;10.20;7.70;;;;;;;13.81;61.90;100389.42;116017;1197;21911;-77
2021/09/10 02:52:51;;;;;;;15.90;7.60;;;;;;;13.80;61.86;100389.08;115779;1197;22423;-77
2021/09/10 02:55:20;;;;;;;9.40;7.60;;;;;;;13.77;61.92;100389.48;115989;1197;23459;-78
2021/09/10 02:57:50;;;;;;;12.10;7.60;;;;;;;13.75;62.01;100387.23;115682;1198;21892;-77
2021/09/10 03:00:23;;;;;;;8.40;6.40;;;;;;;13.73;62.02;100387.80;115768;1200;21891;-77
2021/09/10 03:02:53;;;;;;;10.50;7.70;;;;;;;13.72;61.96;100385.88;115986;1199;21908;-77
2021/09/10 03:05:22;;;;;;;7.80;6.70;;;;;;;13.69;62.10;100386.87;116061;1192;21881;-78
2021/09/10 03:07:52;;;;;;;8.20;6.70;;;;;;;13.68;62.09;100384.33;116068;1196;23632;-77
2021/09/10 03:10:21;;;;;;;13.40;7.10;;;;;;;13.66;62.12;100388.88;116323;1195;21900;-78
2021/09/10 03:12:50;;;;;;;14.10;7.10;;;;;;;13.63;62.27;100388.67;116294;1196;22643;-78
2021/09/10 03:15:20;;;;;;;10.50;6.80;;;;;;;13.61;62.30;100391.32;116159;1196;21886;-77
2021/09/10 03:17:49;;;;;;;10.80;7.00;;;;;;;13.61;62.45;100390.63;115839;1194;22054;-77
2021/09/10 03:20:18;;;;;;;13.20;7.40;;;;;;;13.60;62.48;100390.08;115930;1198;21903;-78
2021/09/10 03:22:47;;;;;;;11.70;8.30;;;;;;;13.59;62.31;100390.23;116077;1198;22304;-78
2021/09/10 03:25:16;;;;;;;10.30;7.20;;;;;;;13.56;62.31;100392.31;116040;1195;21937;-78
2021/09/10 03:27:46;;;;;;;9.80;7.10;;;;;;;13.55;62.30;100395.61;116005;1197;22259;-77
2021/09/10 03:30:15;;;;;;;9.20;7.10;;;;;;;13.53;62.29;100393.21;116142;1197;22059;-77
2021/09/10 03:32:45;;;;;;;9.20;7.70;;;;;;;13.52;62.56;100387.13;116192;1195;21903;-77
2021/09/10 03:35:14;;;;;;;9.80;7.10;;;;;;;13.52;62.64;100387.66;116259;1194;21899;-77
2021/09/10 03:37:43;;;;;;;12.00;8.10;;;;;;;13.52;62.47;100386.59;116333;1193;21885;-77
2021/09/10 03:40:13;;;;;;;10.80;7.40;;;;;;;13.51;62.43;100386.91;116624;1186;21901;-77
2021/09/10 03:42:42;;;;;;;10.30;7.20;;;;;;;13.51;62.51;100389.27;116586;1192;21892;-77
2021/09/10 03:45:12;;;;;;;8.80;7.30;;;;;;;13.50;62.55;100389.02;116568;1193;22724;-77
2021/09/10 03:47:41;;;;;;;11.00;7.00;;;;;;;13.50;62.58;100391.34;116592;1192;22107;-77
2021/09/10 03:50:10;;;;;;;9.40;7.30;;;;;;;13.48;62.45;100388.02;116300;1196;22919;-77
2021/09/10 03:52:39;;;;;;;12.20;7.60;;;;;;;13.46;62.52;100383.98;116387;1189;21901;-78
2021/09/10 03:55:09;;;;;;;9.50;6.80;;;;;;;13.43;62.58;100388.40;116240;1195;23548;-77
2021/09/10 03:57:40;;;;;;;10.90;8.50;;;;;;;13.41;62.64;100385.52;115851;1195;21896;-77
2021/09/10 04:00:11;;;;;;;12.50;7.50;;;;;;;13.39;62.75;100382.31;115997;1195;21912;-79
2021/09/10 04:02:46;;;;;;;14.40;7.70;;;;;;;13.37;62.81;100384.83;115987;1197;22629;-78
2021/09/10 04:05:16;;;;;;;12.90;7.50;;;;;;;13.36;62.82;100384.73;116231;1198;21910;-77
2021/09/10 04:07:45;;;;;;;13.50;7.80;;;;;;;13.34;62.89;100389.02;115761;1199;21869;-78
2021/09/10 04:10:14;;;;;;;12.80;7.20;;;;;;;13.30;62.92;100387.58;115630;1200;22004;-77
2021/09/10 04:12:45;;;;;;;11.10;7.60;;;;;;;13.27;63.01;100387.55;115779;1199;22932;-78
2021/09/10 04:15:14;;;;;;;14.00;7.70;;;;;;;13.25;63.07;100388.68;116022;1197;23558;-78
2021/09/10 04:17:47;;;;;;;8.00;7.20;;;;;;;13.23;63.16;100391.42;116340;1193;22940;-78
2021/09/10 04:20:16;;;;;;;10.30;7.80;;;;;;;13.21;63.28;100393.52;116117;1195;21917;-77
2021/09/10 04:22:45;;;;;;;8.70;7.80;;;;;;;13.20;63.17;100390.61;116367;1195;21890;-78
2021/09/10 04:25:14;;;;;;;11.20;7.90;;;;;;;13.18;63.33;100386.61;116291;1195;22227;-78
2021/09/10 04:27:44;;;;;;;14.70;7.40;;;;;;;13.16;63.31;100389.00;116343;1190;21879;-78
2021/09/10 04:30:14;;;;;;;8.50;7.70;;;;;;;13.13;63.40;100386.12;116519;1190;23009;-78
2021/09/10 04:32:43;;;;;;;10.40;7.80;;;;;;;13.12;63.41;100389.67;116588;1189;21895;-78
2021/09/10 04:35:14;;;;;;;14.70;7.60;;;;;;;13.10;63.61;100390.42;116815;1186;22864;-79
2021/09/10 04:37:43;;;;;;;16.60;9.20;;;;;;;13.09;63.63;100389.32;116886;1191;21915;-78
2021/09/10 04:40:13;;;;;;;11.70;8.20;;;;;;;13.08;63.69;100386.78;116507;1187;21909;-76
2021/09/10 04:42:48;;;;;;;11.40;8.20;;;;;;;13.08;63.79;100385.69;116163;1195;21928;-76
2021/09/10 04:45:22;;;;;;;11.40;8.10;;;;;;;13.09;63.95;100388.21;116350;1196;22911;-75
2021/09/10 04:47:51;;;;;;;10.20;7.70;;;;;;;13.11;64.07;100393.30;116317;1193;22318;-75
2021/09/10 04:50:21;;;;;;;11.20;7.50;;;;;;;13.12;64.11;100393.81;116361;1192;23604;-75
2021/09/10 04:52:50;;;;;;;14.40;7.90;;;;;;;13.14;63.99;100392.08;116380;1192;23551;-76
2021/09/10 04:55:19;;;;;;;11.00;7.70;;;;;;;13.15;64.02;100396.17;116477;1189;21902;-76
2021/09/10 04:57:48;;;;;;;8.20;6.70;;;;;;;13.17;64.01;100401.42;116496;1192;21909;-75
2021/09/10 05:00:17;;;;;;;13.10;7.80;;;;;;;13.21;64.01;100405.95;116382;1193;22928;-78
2021/09/10 05:02:47;;;;;;;10.00;7.70;;;;;;;13.25;63.97;100404.38;116496;1192;21887;-78
2021/09/10 05:05:17;;;;;;;8.10;6.30;;;;;;;13.28;63.88;100406.13;116556;1191;23485;-78
2021/09/10 05:07:46;;;;;;;11.30;8.00;;;;;;;13.32;63.84;100406.23;116252;1194;21930;-78
2021/09/10 05:10:15;;;;;;;10.30;8.10;;;;;;;13.35;63.98;100407.98;116350;1192;21896;-78
2021/09/10 05:12:45;;;;;;;11.30;8.00;;;;;;;13.40;63.62;100410.37;116053;1195;21898;-79
2021/09/10 05:15:14;;;;;;;10.10;7.50;;;;;;;13.45;63.73;100410.70;116264;1198;22974;-77
2021/09/10 05:17:43;;;;;;;9.70;7.20;;;;;;;13.50;63.70;100415.96;116003;1198;21897;-78
2021/09/10 05:20:15;;;;;;;12.50;7.00;;;;;;;13.55;63.66;100416.29;115938;1200;21909;-78
2021/09/10 05:22:44;;;;;;;13.30;7.80;;;;;;;13.62;63.62;100415.23;115585;1200;21917;-77
2021/09/10 05:25:13;;;;;;;13.70;7.80;;;;;;;13.70;63.46;100417.55;115538;1198;21889;-79
2021/09/10 05:27:42;;;;;;;11.40;7.30;;;;;;;13.76;63.31;100414.11;116162;1200;21925;-76
2021/09/10 05:30:11;;;;;;;12.30;7.10;;;;;;;13.82;63.24;100413.61;115954;1198;23495;-80
2021/09/10 05:32:40;;;;;;;12.40;7.10;;;;;;;13.90;63.18;100416.71;116419;1197;21937;-78
2021/09/10 05:35:10;;;;;;;10.40;7.60;;;;;;;13.98;62.95;100415.83;116136;1197;21897;-79
2021/09/10 05:37:39;;;;;;;10.00;6.80;;;;;;;14.07;62.76;100413.48;116150;1197;23564;-78
2021/09/10 05:40:10;;;;;;;11.90;6.10;;;;;;;14.16;62.62;100416.95;115929;1198;22299;-79
2021/09/10 05:42:50;;;;;;;14.80;6.90;;;;;;;14.22;62.46;100416.84;116022;1200;22361;-79
2021/09/10 05:45:19;;;;;;;14.80;7.40;;;;;;;14.31;62.34;100415.38;116294;1192;22658;-79
2021/09/10 05:47:48;;;;;;;11.50;6.70;;;;;;;14.41;62.24;100414.67;115916;1198;21902;-79
2021/09/10 05:50:17;;;;;;;9.30;6.50;;;;;;;14.51;62.01;100414.80;116340;1198;22263;-82
2021/09/10 05:52:47;;;;;;;10.00;7.20;;;;;;;14.63;61.84;100417.18;116371;1192;22751;-80
2021/09/10 05:55:16;;;;;;;9.20;6.60;;;;;;;14.76;61.63;100419.00;116196;1197;21889;-79
2021/09/10 05:57:46;;;;;;;9.20;7.10;;;;;;;14.89;61.43;100417.98;116399;1193;22201;-79
2021/09/10 06:00:18;;;;;;;13.10;7.30;;;;;;;15.06;61.40;100426.16;116556;1192;21956;-79
2021/09/10 06:02:47;;;;;;;8.10;6.40;;;;;;;15.25;61.06;100428.73;116417;1195;22062;-79
2021/09/10 06:05:17;;;;;;;14.20;6.90;;;;;;;15.42;60.71;100427.55;116407;1193;21893;-79
2021/09/10 06:07:46;;;;;;;10.50;7.00;;;;;;;15.62;60.61;100435.60;116531;1193;21886;-80
2021/09/10 06:10:18;;;;;;;10.70;7.20;;;;;;;15.90;60.52;100437.23;116589;1196;21962;-78
2021/09/10 06:12:48;;;;;;;10.80;7.30;;;;;;;16.23;60.13;100439.77;116276;1195;22735;-80
2021/09/10 06:15:17;;;;;;;8.90;7.20;;;;;;;16.53;59.09;100440.25;116451;1196;23551;-79
2021/09/10 06:17:47;;;;;;;10.10;6.40;;;;;;;16.82;58.57;100440.77;116211;1196;21886;-79
2021/09/10 06:20:16;;;;;;;7.40;6.30;;;;;;;17.17;57.94;100437.48;116086;1200;23692;-78
2021/09/10 06:22:48;;;;;;;8.90;6.60;;;;;;;17.60;57.23;100436.73;116023;1198;23535;-80
2021/09/10 06:25:18;;;;;;;13.50;6.50;;;;;;;18.00;56.28;100441.09;116070;1197;21912;-78
2021/09/10 06:27:47;;;;;;;10.70;6.30;;;;;;;18.42;55.27;100439.42;116281;1197;21910;-78
2021/09/10 06:30:16;;;;;;;8.10;5.70;;;;;;;18.83;54.24;100440.17;115958;1199;21894;-77
2021/09/10 06:32:46;;;;;;;12.70;6.30;;;;;;;19.24;53.44;100440.31;116062;1196;21914;-78
2021/09/10 06:35:15;;;;;;;8.50;6.10;;;;;;;19.66;52.37;100440.67;116291;1196;21932;-78
2021/09/10 06:37:45;;;;;;;8.50;5.40;;;;;;;19.97;50.81;100446.52;116141;1194;21898;-78
2021/09/10 06:40:15;;;;;;;8.80;5.50;;;;;;;20.30;50.36;100450.70;116494;1194;21892;-78
2021/09/10 06:42:46;;;;;;;10.20;6.30;;;;;;;20.64;49.56;100448.58;116340;1195;22214;-78
2021/09/10 06:45:15;;;;;;;9.10;5.90;;;;;;;20.96;48.48;100447.17;116711;1195;21893;-78
2021/09/10 06:47:45;;;;;;;11.50;6.50;;;;;;;21.14;47.31;100445.86;116911;1194;21962;-77
2021/09/10 06:50:14;;;;;;;9.10;6.20;;;;;;;21.32;47.23;100444.80;116422;1193;24002;-79
2021/09/10 06:52:44;;;;;;;8.80;6.30;;;;;;;21.61;47.02;100451.98;116349;1193;23477;-79
2021/09/10 06:55:16;;;;;;;11.20;5.70;;;;;;;21.89;46.13;100452.41;116344;1196;21956;-78
2021/09/10 06:57:48;;;;;;;8.30;6.00;;;;;;;22.12;45.31;100453.99;116360;1195;22277;-78
2021/09/10 07:00:18;;;;;;;10.50;5.40;;;;;;;22.31;44.80;100456.44;116585;1196;23449;-79
2021/09/10 07:02:47;;;;;;;11.40;6.10;;;;;;;22.54;44.59;100455.27;116587;1195;22587;-79
2021/09/10 07:05:19;;;;;;;12.20;5.40;;;;;;;22.75;43.92;100455.82;116583;1189;23587;-78
2021/09/10 07:07:49;;;;;;;16.90;6.40;;;;;;;22.99;43.59;100458.73;116381;1195;23453;-79
2021/09/10 07:10:21;;;;;;;10.80;5.50;;;;;;;23.24;42.95;100458.44;116373;1198;21898;-78
2021/09/10 07:12:51;;;;;;;10.40;5.70;;;;;;;23.49;42.70;100459.90;115873;1198;24200;-78
2021/09/10 07:15:20;;;;;;;10.70;5.70;;;;;;;23.75;42.05;100460.84;116402;1195;21916;-78
2021/09/10 07:17:49;;;;;;;12.60;4.90;;;;;;;23.94;41.36;100464.40;116278;1196;23360;-77
2021/09/10 07:20:19;;;;;;;11.60;5.30;;;;;;;24.07;40.57;100469.65;116361;1198;23496;-78
2021/09/10 07:22:49;;;;;;;8.60;5.10;;;;;;;24.22;40.62;100470.73;116101;1196;21853;-78
2021/09/10 07:25:18;;;;;;;10.10;4.60;;;;;;;24.45;40.07;100474.96;116075;1192;22938;-78
2021/09/10 07:27:48;;;;;;;8.40;5.10;;;;;;;24.61;39.36;100477.16;116050;1192;21900;-79
2021/09/10 07:30:17;;;;;;;9.30;4.80;;;;;;;24.76;39.13;100473.81;116518;1193;21894;-78
2021/09/10 07:32:46;;;;;;;8.60;4.80;;;;;;;24.98;38.99;100469.96;116565;1189;23459;-81
2021/09/10 07:35:28;;;;;;;60.90;10.90;;;;;;;25.21;38.14;100470.40;116866;1191;22071;-81
2021/09/10 07:37:57;;;;;;;9.60;4.90;;;;;;;25.32;37.48;100472.36;116906;1193;21899;-78
2021/09/10 07:40:27;;;;;;;11.30;4.70;;;;;;;25.41;37.50;100473.70;116196;1196;21929;-78
2021/09/10 07:42:56;;;;;;;9.90;5.10;;;;;;;25.49;37.18;100475.90;116171;1196;22917;-80
2021/09/10 07:45:25;;;;;;;11.20;5.20;;;;;;;25.59;37.13;100475.02;116236;1191;22717;-83
2021/09/10 07:47:54;;;;;;;15.70;5.00;;;;;;;25.76;36.91;100476.73;116166;1195;21885;-79
2021/09/10 07:50:23;;;;;;;14.20;5.50;;;;;;;26.01;36.64;100475.57;116346;1193;21944;-79
2021/09/10 07:52:53;;;;;;;9.70;5.00;;;;;;;26.16;35.64;100480.36;115918;1198;21930;-79
2021/09/10 07:55:22;;;;;;;10.80;4.70;;;;;;;26.27;35.24;100477.08;115763;1194;21920;-78
2021/09/10 07:57:52;;;;;;;10.90;4.40;;;;;;;26.31;35.08;100476.70;115677;1197;21895;-79
2021/09/10 08:00:21;;;;;;;11.40;4.70;;;;;;;26.31;34.80;100475.83;115960;1199;21894;-78
2021/09/10 08:02:51;;;;;;;9.70;4.80;;;;;;;26.44;34.91;100478.35;115987;1196;21948;-78
2021/09/10 08:05:21;;;;;;;11.70;4.80;;;;;;;26.45;34.08;100475.85;116071;1196;23550;-78
2021/09/10 08:07:51;;;;;;;12.10;3.90;;;;;;;26.56;35.03;100479.66;116108;1198;23644;-79
2021/09/10 08:10:24;;;;;;;9.20;4.40;;;;;;;26.75;34.32;100485.29;116071;1193;21974;-79
2021/09/10 08:12:53;;;;;;;9.70;4.40;;;;;;;26.95;34.47;100482.51;116355;1192;21936;-79
2021/09/10 08:15:22;;;;;;;9.90;4.40;;;;;;;27.17;34.03;100479.56;116324;1195;21885;-78
2021/09/10 08:17:52;;;;;;;12.30;5.00;;;;;;;27.41;34.39;100481.08;116285;1194;21905;-78
2021/09/10 08:20:21;;;;;;;7.90;3.90;;;;;;;27.71;33.51;100487.91;116748;1193;23473;-79
2021/09/10 08:22:51;;;;;;;7.40;4.90;;;;;;;27.98;33.14;100483.34;116763;1191;23452;-79
2021/09/10 08:25:20;;;;;;;6.40;3.80;;;;;;;28.14;32.23;100482.27;116760;1191;21899;-79
2021/09/10 08:27:49;;;;;;;8.10;4.20;;;;;;;27.96;31.38;100483.89;116557;1191;23532;-79
2021/09/10 08:30:20;;;;;;;8.90;4.70;;;;;;;27.82;32.10;100483.42;116830;1191;23484;-79
2021/09/10 08:32:52;;;;;;;10.00;4.50;;;;;;;28.09;32.62;100482.45;116584;1190;21903;-79
2021/09/10 08:35:22;;;;;;;11.00;4.60;;;;;;;28.44;32.57;100483.91;116509;1193;22911;-80
2021/09/10 08:37:51;;;;;;;6.90;4.70;;;;;;;28.76;31.51;100483.98;116687;1190;21893;-80
2021/09/10 08:40:20;;;;;;;11.10;5.10;;;;;;;28.97;31.15;100485.96;116829;1188;21976;-78
2021/09/10 08:42:49;;;;;;;9.20;3.80;;;;;;;29.10;30.59;100487.23;116638;1193;23479;-80
2021/09/10 08:45:19;;;;;;;12.80;4.30;;;;;;;29.18;30.60;100486.43;116737;1191;21893;-80
2021/09/10 08:47:48;;;;;;;12.20;3.90;;;;;;;29.29;29.83;100483.80;116676;1195;21924;-80
2021/09/10 08:50:18;;;;;;;11.40;4.20;;;;;;;29.38;29.28;100485.16;116616;1191;23104;-79
2021/09/10 08:52:47;;;;;;;6.20;3.40;;;;;;;29.50;29.21;100486.17;116595;1193;22035;-81
2021/09/10 08:55:17;;;;;;;4.40;3.10;;;;;;;29.59;29.00;100485.48;116711;1192;21902;-81
2021/09/10 08:57:48;;;;;;;5.20;2.80;;;;;;;29.66;28.29;100482.67;116321;1199;21916;-80
2021/09/10 09:00:26;;;;;;;9.50;3.70;;;;;;;29.60;28.12;100482.52;116023;1193;21918;-80
2021/09/10 09:02:59;;;;;;;9.50;3.40;;;;;;;29.53;27.76;100483.52;116266;1195;22031;-79
2021/09/10 09:05:33;;;;;;;10.00;3.30;;;;;;;29.55;27.72;100481.81;115916;1198;22928;-80
2021/09/10 09:08:17;;;;;;;7.20;3.30;;;;;;;29.62;27.60;100477.99;116170;1199;21886;-79
2021/09/10 09:11:06;;;;;;;7.60;3.40;;;;;;;29.88;27.90;100474.86;115846;1203;23555;-80
2021/09/10 09:13:41;;;;;;;10.00;3.40;;;;;;;30.23;27.79;100469.95;115869;1202;21921;-80
2021/09/10 09:16:31;;;;;;;6.70;3.50;;;;;;;30.51;27.06;100465.27;115640;1199;23451;-80
2021/09/10 09:19:07;;;;;;;7.70;3.40;;;;;;;30.53;26.64;100465.29;115607;1201;23643;-79
2021/09/10 09:21:40;;;;;;;8.60;3.90;;;;;;;30.55;26.54;100465.37;115896;1203;21896;-79
2021/09/10 09:24:23;;;;;;;5.00;3.40;;;;;;;30.46;25.87;100468.41;116022;1197;22834;-80
2021/09/10 09:26:53;;;;;;;7.30;3.00;;;;;;;30.33;26.18;100469.09;116265;1196;22231;-79
2021/09/10 09:29:23;;;;;;;7.40;3.20;;;;;;;30.44;26.10;100469.35;116540;1191;22433;-80
2021/09/10 09:32:01;;;;;;;5.40;3.00;;;;;;;30.37;25.55;100471.66;116567;1194;23668;-79
2021/09/10 09:34:55;;;;;;;5.90;3.10;;;;;;;30.21;25.78;100470.86;116620;1189;22786;-81
2021/09/10 09:37:25;;;;;;;8.30;4.20;;;;;;;30.25;26.11;100470.65;116235;1199;21922;-78
2021/09/10 09:40:00;;;;;;;7.00;3.10;;;;;;;30.39;26.46;100470.98;115990;1198;21934;-77
2021/09/10 09:42:35;;;;;;;13.40;4.10;;;;;;;30.50;25.79;100466.59;116146;1196;22601;-79
2021/09/10 09:45:13;;;;;;;9.20;3.90;;;;;;;30.45;25.88;100466.95;115754;1198;21975;-79
2021/09/10 09:47:44;;;;;;;9.90;3.30;;;;;;;30.56;25.97;100462.89;116178;1199;21981;-79
2021/09/10 09:50:17;;;;;;;7.20;3.40;;;;;;;30.57;25.48;100462.30;115982;1198;23467;-78
2021/09/10 09:52:51;;;;;;;9.20;3.40;;;;;;;30.56;25.68;100463.24;116002;1195;21910;-77
2021/09/10 09:55:21;;;;;;;6.10;3.30;;;;;;;30.53;25.52;100466.83;116107;1194;22350;-77
2021/09/10 09:57:52;;;;;;;9.40;3.20;;;;;;;30.48;25.90;100463.68;116330;1195;21947;-77
2021/09/10 10:00:22;;;;;;;18.10;4.20;;;;;;;30.50;25.84;100461.08;116320;1192;22620;-78
2021/09/10 10:02:51;;;;;;;7.50;4.10;;;;;;;30.72;26.14;100461.59;116509;1194;23667;-79
2021/09/10 10:05:25;;;;;;;9.20;4.20;;;;;;;30.91;25.82;100462.41;116638;1192;22639;-78
2021/09/10 10:08:06;;;;;;;4.70;3.20;;;;;;;31.01;25.61;100464.84;116539;1186;23572;-79
2021/09/10 10:10:47;;;;;;;5.10;3.50;;;;;;;31.19;26.00;100459.48;116229;1193;23455;-76
2021/09/10 10:13:29;;;;;;;8.70;3.60;;;;;;;31.28;25.48;100459.36;116378;1196;22638;-78
2021/09/10 10:15:59;;;;;;;8.90;3.90;;;;;;;31.26;25.04;100454.16;116338;1192;21906;-77
2021/09/10 10:18:51;;;;;;;5.40;3.40;;;;;;;31.28;25.44;100457.45;116298;1194;24176;-77
2021/09/10 10:21:52;;;;;;;10.40;3.60;;;;;;;31.48;25.32;100456.79;116356;1196;23651;-78
2021/09/10 10:24:52;;;;;;;8.90;3.80;;;;;;;31.49;24.64;100454.85;116360;1195;21897;-76
2021/09/10 10:27:45;;;;;;;9.80;4.00;;;;;;;31.25;24.68;100458.60;116400;1191;24343;-77
2021/09/10 10:30:14;;;;;;;16.40;4.10;;;;;;;31.25;25.54;100457.55;116534;1191;21910;-76
2021/09/10 10:32:51;;;;;;;12.50;3.60;;;;;;;31.35;25.67;100456.17;116654;1189;21881;-76
2021/09/10 10:35:39;;;;;;;6.40;3.00;;;;;;;31.44;25.64;100455.90;116663;1189;22393;-77
2021/09/10 10:38:16;;;;;;;7.90;3.80;;;;;;;31.44;25.42;100454.80;116605;1191;21890;-76
2021/09/10 10:40:56;;;;;;;9.00;4.90;;;;;;;31.28;24.94;100455.70;116577;1191;23551;-77
2021/09/10 10:43:29;;;;;;;9.00;3.90;;;;;;;31.09;25.20;100456.95;116639;1191;23666;-77
2021/09/10 10:46:09;;;;;;;7.30;3.30;;;;;;;30.94;25.42;100452.42;116624;1192;21986;-77
2021/09/10 10:48:41;;;;;;;10.50;3.90;;;;;;;30.77;25.56;100448.96;116763;1189;21893;-77
2021/09/10 10:51:33;;;;;;;4.90;3.10;;;;;;;30.59;25.75;100450.78;116732;1191;23597;-79
2021/09/10 10:54:05;;;;;;;5.30;3.30;;;;;;;30.30;25.78;100447.13;116653;1193;21904;-78
2021/09/10 10:56:58;;;;;;;6.30;3.10;;;;;;;30.02;26.09;100442.25;116397;1196;22071;-77
2021/09/10 10:59:28;;;;;;;6.50;2.90;;;;;;;29.75;26.68;100443.46;116271;1196;21908;-78
2021/09/10 11:02:17;;;;;;;9.80;3.00;;;;;;;29.52;26.80;100437.38;116165;1197;21905;-79
2021/09/10 11:05:13;;;;;;;7.30;4.10;;;;;;;29.32;27.08;100435.56;116269;1195;22938;-79
2021/09/10 11:07:44;;;;;;;5.80;2.70;;;;;;;29.05;27.26;100432.26;116191;1191;21898;-78
2021/09/10 11:10:19;;;;;;;5.60;3.40;;;;;;;28.93;27.86;100431.02;116128;1195;23479;-79
2021/09/10 11:12:54;;;;;;;35.50;5.80;;;;;;;28.80;27.95;100430.87;116132;1195;22917;-82
2021/09/10 11:15:33;;;;;;;7.80;3.30;;;;;;;28.66;28.38;100433.18;116386;1195;24499;-82
2021/09/10 11:18:11;;;;;;;5.70;2.80;;;;;;;28.43;28.37;100436.05;116395;1197;21926;-82
2021/09/10 11:20:48;;;;;;;7.90;4.00;;;;;;;28.24;28.70;100433.41;116398;1197;22415;-82
2021/09/10 11:23:35;;;;;;;7.20;3.10;;;;;;;28.11;29.12;100430.78;116044;1201;22409;-82
2021/09/10 11:26:09;;;;;;;6.60;2.80;;;;;;;27.89;28.78;100432.02;115993;1201;21932;-81
2021/09/10 11:28:38;;;;;;;14.70;3.50;;;;;;;27.73;29.15;100427.16;115941;1202;23462;-81
2021/09/10 11:31:08;;;;;;;8.40;3.10;;;;;;;27.63;29.42;100426.77;116068;1201;24234;-81